createdAt,value
2022-07-29T00:01:58.230Z,84.20
2022-07-29T00:05:00.356Z,84.70
2022-07-29T00:08:02.413Z,84.65
2022-07-29T00:11:05.084Z,84.70
2022-07-29T00:14:07.138Z,84.97
2022-07-29T00:17:09.237Z,85.02
2022-07-29T00:20:11.591Z,84.85
2022-07-29T00:23:13.827Z,84.67
2022-07-29T00:26:15.941Z,84.50
2022-07-29T00:29:33.646Z,84.40
2022-07-29T00:32:36.740Z,84.94
2022-07-29T00:35:44.936Z,85.08
2022-07-29T00:38:47.381Z,84.83
2022-07-29T00:41:50.036Z,84.53
2022-07-29T00:44:52.208Z,84.27
2022-07-29T00:47:54.311Z,84.39
2022-07-29T00:50:59.500Z,84.65
2022-07-29T00:54:01.641Z,84.78
2022-07-29T00:57:03.832Z,84.70
2022-07-29T01:04:30.977Z,84.92
2022-07-29T01:07:38.172Z,85.39
2022-07-29T01:10:42.175Z,85.77
2022-07-29T01:13:45.640Z,85.64
2022-07-29T01:16:56.595Z,86.03
2022-07-29T01:20:15.413Z,85.76
2022-07-29T01:23:42.502Z,85.69
2022-07-29T01:26:53.715Z,85.92
2022-07-29T01:30:00.872Z,86.00
2022-07-29T01:33:11.266Z,85.83
2022-07-29T01:36:17.606Z,86.00
2022-07-29T01:39:19.621Z,85.90
2022-07-29T01:42:25.222Z,85.81
2022-07-29T01:45:32.536Z,85.91
2022-07-29T01:48:46.995Z,86.18
2022-07-29T01:51:54.219Z,85.96
2022-07-29T01:54:59.949Z,86.02
2022-07-29T01:58:06.294Z,86.21
2022-07-29T02:01:11.009Z,85.82
2022-07-29T02:04:29.623Z,85.98
2022-07-29T02:07:37.863Z,85.76
2022-07-29T02:10:43.460Z,85.83
2022-07-29T02:13:47.657Z,85.94
2022-07-29T02:16:54.930Z,86.05
2022-07-29T02:20:00.419Z,85.67
2022-07-29T02:23:03.769Z,86.44
2022-07-29T02:26:07.478Z,86.78
2022-07-29T02:29:11.226Z,86.98
2022-07-29T02:32:16.471Z,87.21
2022-07-29T02:35:20.050Z,87.25
2022-07-29T02:38:42.544Z,87.02
2022-07-29T02:41:54.107Z,86.53
2022-07-29T02:44:57.098Z,86.69
2022-07-29T02:48:02.036Z,86.73
2022-07-29T02:51:13.383Z,86.94
2022-07-29T02:54:43.686Z,87.35
2022-07-29T02:57:55.711Z,87.56
2022-07-29T03:01:10.119Z,87.75
2022-07-29T03:04:14.678Z,87.40
2022-07-29T03:07:21.446Z,87.53
2022-07-29T03:10:25.042Z,87.50
2022-07-29T03:13:28.821Z,87.62
2022-07-29T03:16:31.322Z,87.96
2022-07-29T03:19:33.698Z,88.07
2022-07-29T03:22:44.801Z,88.21
2022-07-29T03:25:47.780Z,88.28
2022-07-29T03:28:50.004Z,88.49
2022-07-29T03:31:52.329Z,88.61
2022-07-29T03:34:54.331Z,88.84
2022-07-29T03:37:56.493Z,88.76
2022-07-29T03:41:03.017Z,89.02
2022-07-29T03:44:08.076Z,89.11
2022-07-29T03:47:12.323Z,89.33
2022-07-29T03:50:16.545Z,89.26
2022-07-29T03:53:19.268Z,89.24
2022-07-29T03:56:24.801Z,89.26
2022-07-29T03:59:28.324Z,89.11
2022-07-29T04:02:31.022Z,88.86
2022-07-29T04:05:33.204Z,88.88
2022-07-29T04:08:36.118Z,88.99
2022-07-29T04:12:02.496Z,89.29
2022-07-29T04:15:06.177Z,88.82
2022-07-29T04:18:08.305Z,88.84
2022-07-29T04:21:10.333Z,89.09
2022-07-29T04:24:12.651Z,88.74
2022-07-29T04:27:14.860Z,88.50
2022-07-29T04:30:16.833Z,88.66
2022-07-29T04:33:18.926Z,88.63
2022-07-29T04:36:29.260Z,88.51
2022-07-29T04:39:32.090Z,88.71
2022-07-29T04:42:34.070Z,88.46
2022-07-29T04:45:47.104Z,88.36
2022-07-29T04:48:49.542Z,88.44
2022-07-29T04:51:51.607Z,88.12
2022-07-29T04:54:53.702Z,87.74
2022-07-29T04:57:55.784Z,87.65
2022-07-29T05:00:57.936Z,87.16
2022-07-29T05:04:00.810Z,86.67
2022-07-29T05:07:03.055Z,86.20
2022-07-29T05:10:05.690Z,86.11
2022-07-29T05:13:08.834Z,85.68
2022-07-29T05:16:10.977Z,84.89
2022-07-29T05:19:14.529Z,84.58
2022-07-29T05:22:16.846Z,84.04
2022-07-29T05:25:19.019Z,83.46
2022-07-29T05:28:21.129Z,83.38
2022-07-29T05:31:23.243Z,82.79
2022-07-29T05:34:26.231Z,82.33
2022-07-29T05:37:28.337Z,81.89
2022-07-29T05:40:30.610Z,81.16
2022-07-29T05:43:33.053Z,80.63
2022-07-29T05:46:35.160Z,80.26
2022-07-29T05:49:38.013Z,80.14
2022-07-29T05:52:40.339Z,79.82
2022-07-29T05:55:42.395Z,79.65
2022-07-29T05:58:44.525Z,79.31
2022-07-29T06:01:49.758Z,79.53
2022-07-29T06:04:51.944Z,79.27
2022-07-29T06:07:54.432Z,78.58
2022-07-29T06:10:56.487Z,78.41
2022-07-29T06:13:58.536Z,78.06
2022-07-29T06:17:00.614Z,77.79
2022-07-29T06:20:04.045Z,77.34
2022-07-29T06:23:06.131Z,77.00
2022-07-29T06:26:08.235Z,76.99
2022-07-29T06:29:11.869Z,76.49
2022-07-29T06:32:13.979Z,76.36
2022-07-29T06:38:40.392Z,75.58
2022-07-29T06:41:51.635Z,75.79
2022-07-29T06:44:53.870Z,75.52
2022-07-29T06:47:55.964Z,75.64
2022-07-29T06:50:58.321Z,75.12
2022-07-29T06:54:12.827Z,74.96
2022-07-29T06:57:15.286Z,74.79
2022-07-29T07:00:17.519Z,74.61
2022-07-29T07:03:20.592Z,73.87
2022-07-29T07:06:22.733Z,73.32
2022-07-29T07:09:24.734Z,72.38
2022-07-29T07:12:42.097Z,71.76
2022-07-29T07:15:45.289Z,70.58
2022-07-29T07:18:47.368Z,70.70
2022-07-29T07:21:49.454Z,70.00
2022-07-29T07:24:51.665Z,70.20
2022-07-29T07:27:53.816Z,69.11
2022-07-29T07:30:56.194Z,68.34
2022-07-29T07:33:58.449Z,66.22
2022-07-29T07:37:00.567Z,63.30
2022-07-29T07:40:04.367Z,60.09
2022-07-29T07:43:06.467Z,57.48
2022-07-29T07:46:08.645Z,54.23
2022-07-29T07:49:11.199Z,51.79
2022-07-29T07:52:13.323Z,50.54
2022-07-29T07:55:15.575Z,49.09
2022-07-29T07:58:17.618Z,50.88
2022-07-29T08:01:22.368Z,52.02
2022-07-29T08:04:28.363Z,52.55
2022-07-29T08:07:31.416Z,53.07
2022-07-29T08:10:52.863Z,51.51
2022-07-29T08:13:54.863Z,48.32
2022-07-29T08:16:57.098Z,46.14
2022-07-29T08:19:59.132Z,47.85
2022-07-29T08:23:01.274Z,46.38
2022-07-29T08:26:03.297Z,45.16
2022-07-29T08:29:05.977Z,44.16
2022-07-29T08:32:08.280Z,45.58
2022-07-29T08:35:10.821Z,45.77
2022-07-29T08:38:12.917Z,46.00
2022-07-29T08:41:14.947Z,45.95
2022-07-29T08:44:18.420Z,43.74
2022-07-29T08:47:31.067Z,41.73
2022-07-29T08:50:36.302Z,42.29
2022-07-29T08:53:39.323Z,43.05
2022-07-29T08:56:42.200Z,42.80
2022-07-29T08:59:47.224Z,42.99
2022-07-29T09:02:54.938Z,42.66
2022-07-29T09:05:57.294Z,42.84
2022-07-29T09:09:00.719Z,43.42
2022-07-29T09:12:02.954Z,44.01
2022-07-29T09:15:05.250Z,43.60
2022-07-29T09:18:07.425Z,43.69
2022-07-29T09:21:31.184Z,44.37
2022-07-29T09:24:36.610Z,45.66
2022-07-29T09:27:38.849Z,46.15
2022-07-29T09:30:55.603Z,44.88
2022-07-29T09:33:59.540Z,46.17
2022-07-29T09:37:01.758Z,46.29
2022-07-29T09:40:13.378Z,44.42
2022-07-29T09:43:15.573Z,42.73
2022-07-29T09:46:17.714Z,42.14
2022-07-29T09:49:19.799Z,40.94
2022-07-29T09:52:22.693Z,40.85
2022-07-29T09:55:25.201Z,40.00
2022-07-29T09:58:28.496Z,40.44
2022-07-29T10:01:30.681Z,37.31
2022-07-29T10:04:43.809Z,37.85
2022-07-29T10:07:54.053Z,37.86
2022-07-29T10:11:11.101Z,38.46
2022-07-29T10:14:13.246Z,37.82
2022-07-29T10:17:16.792Z,36.56
2022-07-29T10:20:19.297Z,35.74
2022-07-29T10:23:21.995Z,37.16
2022-07-29T10:26:24.705Z,37.53
2022-07-29T10:29:27.646Z,39.70
2022-07-29T10:32:54.114Z,42.25
2022-07-29T10:36:18.595Z,43.58
2022-07-29T10:39:50.084Z,43.32
2022-07-29T10:42:54.810Z,44.17
2022-07-29T10:45:59.867Z,44.10
2022-07-29T10:52:53.889Z,42.62
2022-07-29T10:55:56.470Z,42.49
2022-07-29T10:59:22.715Z,42.61
2022-07-29T11:02:54.465Z,42.28
2022-07-29T11:09:35.122Z,41.32
2022-07-29T11:12:40.343Z,42.44
2022-07-29T11:15:56.037Z,42.85
2022-07-29T11:19:13.769Z,42.64
2022-07-29T11:22:35.742Z,40.38
2022-07-29T11:25:50.237Z,39.76
2022-07-29T11:29:07.374Z,39.44
2022-07-29T11:32:22.884Z,37.97
2022-07-29T11:35:37.636Z,38.37
2022-07-29T11:38:43.154Z,38.70
2022-07-29T11:41:45.289Z,39.17
2022-07-29T11:45:41.556Z,39.60
2022-07-29T11:48:32.391Z,37.85
2022-07-29T11:51:38.361Z,36.67
2022-07-29T11:54:58.291Z,37.04
2022-07-29T11:58:03.999Z,36.57
2022-07-29T12:01:07.547Z,35.26
2022-07-29T12:04:09.610Z,36.80
2022-07-29T12:07:15.694Z,39.12
2022-07-29T12:10:20.007Z,40.41
2022-07-29T12:13:41.150Z,40.13
2022-07-29T12:16:43.301Z,39.65
2022-07-29T12:19:46.438Z,39.81
2022-07-29T12:22:50.460Z,40.69
2022-07-29T12:25:53.310Z,37.29
2022-07-29T12:28:56.245Z,36.72
2022-07-29T12:31:59.893Z,35.48
2022-07-29T12:35:11.298Z,35.65
2022-07-29T12:38:14.488Z,37.03
2022-07-29T12:41:16.750Z,38.38
2022-07-29T12:44:18.865Z,39.91
2022-07-29T12:47:21.899Z,39.99
2022-07-29T12:50:26.405Z,41.07
2022-07-29T12:53:29.454Z,42.05
2022-07-29T12:56:47.065Z,42.22
2022-07-29T13:00:12.206Z,42.75
2022-07-29T13:03:14.339Z,43.83
2022-07-29T13:06:39.572Z,43.98
2022-07-29T13:09:46.682Z,44.89
2022-07-29T13:13:07.440Z,46.09
2022-07-29T13:16:09.541Z,46.82
2022-07-29T13:19:13.781Z,46.66
2022-07-29T13:22:18.380Z,48.14
2022-07-29T13:25:32.995Z,49.40
2022-07-29T13:28:35.480Z,51.36
2022-07-29T13:31:37.542Z,51.43
2022-07-29T13:34:39.761Z,51.55
2022-07-29T13:37:41.952Z,52.14
2022-07-29T13:40:44.196Z,52.51
2022-07-29T13:43:46.825Z,52.76
2022-07-29T13:46:52.415Z,53.36
2022-07-29T13:49:54.851Z,55.18
2022-07-29T13:52:56.949Z,56.62
2022-07-29T13:55:58.992Z,58.53
2022-07-29T13:59:01.359Z,61.05
2022-07-29T14:02:04.133Z,62.87
2022-07-29T14:05:08.824Z,63.86
2022-07-29T14:08:11.061Z,64.29
2022-07-29T14:11:13.175Z,65.97
2022-07-29T14:14:15.253Z,67.71
2022-07-29T14:17:17.439Z,69.62
2022-07-29T14:20:19.660Z,71.31
2022-07-29T14:23:21.781Z,72.38
2022-07-29T14:26:24.249Z,72.52
2022-07-29T14:29:37.721Z,73.07
2022-07-29T14:32:40.393Z,74.38
2022-07-29T14:35:42.517Z,74.42
2022-07-29T14:38:44.713Z,74.91
2022-07-29T14:41:46.778Z,73.95
2022-07-29T14:44:50.505Z,73.50
2022-07-29T14:47:56.507Z,73.50
2022-07-29T14:51:04.409Z,73.47
2022-07-29T14:54:06.962Z,73.24
2022-07-29T14:57:09.880Z,73.55
2022-07-29T15:00:12.843Z,74.05
2022-07-29T15:03:24.274Z,74.24
2022-07-29T15:06:27.997Z,74.01
2022-07-29T15:09:30.019Z,74.33
2022-07-29T15:12:32.772Z,74.99
2022-07-29T15:15:34.800Z,75.27
2022-07-29T15:18:38.861Z,76.22
2022-07-29T15:21:41.699Z,76.32
2022-07-29T15:24:50.435Z,77.49
2022-07-29T15:27:54.702Z,78.12
2022-07-29T15:30:58.665Z,78.02
2022-07-29T15:34:05.131Z,78.39
2022-07-29T15:37:08.761Z,78.71
2022-07-29T15:40:11.527Z,79.21
2022-07-29T15:43:13.820Z,79.38
2022-07-29T15:46:36.041Z,79.52
2022-07-29T15:49:47.111Z,79.03
2022-07-29T15:52:52.045Z,78.66
2022-07-29T15:55:54.099Z,77.71
2022-07-29T15:58:56.506Z,77.24
2022-07-29T16:01:59.482Z,76.89
2022-07-29T16:05:01.586Z,76.73
2022-07-29T16:08:03.639Z,77.37
2022-07-29T16:11:05.701Z,77.10
2022-07-29T16:14:08.037Z,75.51
2022-07-29T16:17:14.343Z,65.98
2022-07-29T16:20:17.304Z,57.47
2022-07-29T16:23:19.673Z,57.05
2022-07-29T16:26:21.725Z,59.58
2022-07-29T16:29:23.846Z,63.00
2022-07-29T16:32:25.979Z,65.00
2022-07-29T16:35:39.584Z,66.37
2022-07-29T16:38:47.508Z,67.91
2022-07-29T16:41:49.899Z,68.65
2022-07-29T16:44:51.898Z,69.65
2022-07-29T16:47:59.884Z,70.73
2022-07-29T16:51:02.609Z,71.38
2022-07-29T16:54:04.650Z,72.09
2022-07-29T16:57:06.850Z,72.60
2022-07-29T17:00:09.946Z,72.53
2022-07-29T17:03:12.805Z,73.13
2022-07-29T17:06:15.688Z,73.93
2022-07-29T17:09:17.792Z,74.04
2022-07-29T17:12:19.976Z,74.46
2022-07-29T17:15:22.244Z,74.35
2022-07-29T17:18:27.861Z,74.72
2022-07-29T17:21:31.101Z,75.10
2022-07-29T17:24:33.749Z,74.80
2022-07-29T17:27:36.855Z,75.26
2022-07-29T17:30:38.872Z,75.19
2022-07-29T17:33:40.854Z,75.55
2022-07-29T17:36:42.934Z,75.78
2022-07-29T17:39:45.220Z,75.81
2022-07-29T17:42:47.463Z,76.42
2022-07-29T17:45:50.898Z,76.39
2022-07-29T17:48:57.267Z,76.56
2022-07-29T17:52:01.085Z,76.70
2022-07-29T17:55:03.346Z,77.45
2022-07-29T17:58:08.640Z,77.77
2022-07-29T18:01:11.143Z,78.32
2022-07-29T18:04:13.332Z,78.79
2022-07-29T18:07:15.345Z,78.88
2022-07-29T18:10:17.415Z,79.46
2022-07-29T18:13:19.669Z,79.73
2022-07-29T18:16:21.803Z,80.29
2022-07-29T18:19:23.818Z,81.01
2022-07-29T18:22:25.913Z,81.86
2022-07-29T18:25:29.056Z,82.32
2022-07-29T18:28:32.977Z,82.74
2022-07-29T18:31:35.116Z,82.78
2022-07-29T18:34:37.249Z,83.34
2022-07-29T18:38:00.894Z,83.82
2022-07-29T18:41:01.389Z,83.92
2022-07-29T18:44:03.452Z,84.05
2022-07-29T18:47:06.581Z,84.03
2022-07-29T18:50:11.605Z,84.33
2022-07-29T18:53:13.646Z,84.48
2022-07-29T18:56:15.784Z,84.80
2022-07-29T18:59:20.043Z,85.20
2022-07-29T19:02:22.926Z,85.74
2022-07-29T19:05:25.322Z,86.14
2022-07-29T19:08:27.449Z,86.33
2022-07-29T19:11:29.497Z,86.59
2022-07-29T19:14:31.903Z,86.68
2022-07-29T19:17:33.912Z,86.77
2022-07-29T19:20:36.189Z,86.90
2022-07-29T19:24:01.861Z,87.19
2022-07-29T19:27:00.584Z,87.61
2022-07-29T19:30:05.173Z,88.24
2022-07-29T19:33:07.552Z,88.61
2022-07-29T19:36:09.816Z,88.85
2022-07-29T19:39:12.049Z,89.13
2022-07-29T19:42:14.102Z,89.21
2022-07-29T19:45:16.112Z,89.51
2022-07-29T19:48:18.201Z,89.14
2022-07-29T19:51:20.368Z,89.41
2022-07-29T19:54:22.481Z,89.46
2022-07-29T19:57:24.551Z,89.19
2022-07-29T20:00:28.302Z,89.50
2022-07-29T20:03:33.142Z,89.50
2022-07-29T20:06:35.259Z,89.64
2022-07-29T20:09:37.567Z,90.01
2022-07-29T20:12:39.659Z,90.12
2022-07-29T20:15:41.939Z,90.21
2022-07-29T20:18:44.026Z,90.38
2022-07-29T20:21:46.092Z,90.64
2022-07-29T20:24:48.348Z,90.58
2022-07-29T20:27:52.689Z,90.43
2022-07-29T20:30:54.783Z,90.69
2022-07-29T20:33:56.800Z,90.60
2022-07-29T20:36:58.977Z,90.80
2022-07-29T20:40:03.590Z,90.78
2022-07-29T20:43:06.205Z,90.88
2022-07-29T20:46:08.429Z,90.79
2022-07-29T20:49:10.593Z,91.00
2022-07-29T20:52:12.926Z,90.94
2022-07-29T20:55:14.976Z,91.30
2022-07-29T20:58:18.971Z,91.21
2022-07-29T21:01:21.135Z,91.42
2022-07-29T21:04:23.200Z,91.43
2022-07-29T21:07:32.955Z,91.46
2022-07-29T21:10:35.380Z,91.81
2022-07-29T21:13:40.282Z,91.67
2022-07-29T21:16:42.345Z,91.86
2022-07-29T21:19:44.517Z,91.70
2022-07-29T21:22:46.560Z,91.64
2022-07-29T21:25:48.671Z,91.45
2022-07-29T21:28:50.721Z,91.67
2022-07-29T21:31:52.779Z,91.68
2022-07-29T21:34:54.898Z,91.75
2022-07-29T21:37:56.983Z,91.71
2022-07-29T21:40:59.590Z,91.83
2022-07-29T21:44:01.654Z,91.76
2022-07-29T21:47:05.852Z,92.16
2022-07-29T21:50:08.305Z,92.43
2022-07-29T21:53:13.854Z,92.37
2022-07-29T21:56:18.136Z,92.61
2022-07-29T21:59:20.237Z,92.65
2022-07-29T22:02:22.323Z,92.55
2022-07-29T22:05:24.336Z,92.75
2022-07-29T22:08:26.442Z,92.75
2022-07-29T22:11:28.578Z,92.57
2022-07-29T22:14:30.599Z,92.58
2022-07-29T22:17:33.051Z,92.37
2022-07-29T22:20:35.131Z,92.64
2022-07-29T22:23:37.185Z,92.50
2022-07-29T22:26:39.185Z,92.67
2022-07-29T22:29:41.333Z,92.70
2022-07-29T22:32:43.664Z,92.78
2022-07-29T22:35:48.599Z,92.69
2022-07-29T22:38:52.057Z,92.96
2022-07-29T22:41:54.524Z,92.94
2022-07-29T22:44:56.713Z,92.90
2022-07-29T22:47:59.166Z,93.05
2022-07-29T22:51:01.614Z,93.08
2022-07-29T22:54:04.603Z,93.26
2022-07-29T22:57:06.870Z,93.21
2022-07-29T23:00:09.732Z,93.19
2022-07-29T23:03:11.804Z,93.38
2022-07-29T23:06:14.192Z,93.64
2022-07-29T23:09:16.588Z,93.12
2022-07-29T23:12:18.595Z,92.91
2022-07-29T23:15:20.682Z,92.91
2022-07-29T23:18:22.867Z,92.93
2022-07-29T23:21:26.433Z,92.99
2022-07-29T23:24:28.526Z,93.53
2022-07-29T23:27:30.675Z,93.84
2022-07-29T23:30:32.900Z,94.16
2022-07-29T23:33:34.923Z,94.67
2022-07-29T23:36:37.001Z,96.58
2022-07-29T23:39:39.125Z,96.18
2022-07-29T23:42:42.430Z,95.69
2022-07-29T23:45:45.224Z,95.35
2022-07-29T23:48:50.988Z,94.81
2022-07-29T23:51:53.028Z,94.73
2022-07-29T23:54:55.210Z,94.56
2022-07-29T23:58:17.210Z,94.67
